createdAt,value
2023-05-14T00:00:38.354Z,78.61
2023-05-14T00:01:38.405Z,78.91
2023-05-14T00:02:38.392Z,78.91
2023-05-14T00:03:38.376Z,78.95
2023-05-14T00:04:38.470Z,78.81
2023-05-14T00:05:38.324Z,78.75
2023-05-14T00:06:38.366Z,78.95
2023-05-14T00:07:38.283Z,78.81
2023-05-14T00:08:38.275Z,78.95
2023-05-14T00:09:38.267Z,79.05
2023-05-14T00:10:38.276Z,79.16
2023-05-14T00:11:38.308Z,79.46
2023-05-14T00:12:38.247Z,79.46
2023-05-14T00:13:38.227Z,79.50
2023-05-14T00:14:39.219Z,79.66
2023-05-14T00:15:38.343Z,80.11
2023-05-14T00:16:38.274Z,80.76
2023-05-14T00:17:38.253Z,81.58
2023-05-14T00:18:38.188Z,81.99
2023-05-14T00:19:38.197Z,81.79
2023-05-14T00:20:38.187Z,82.13
2023-05-14T00:21:38.149Z,82.43
2023-05-14T00:22:38.148Z,82.75
2023-05-14T00:23:38.121Z,83.36
2023-05-14T00:24:38.136Z,82.43
2023-05-14T00:25:38.151Z,81.93
2023-05-14T00:26:38.102Z,82.34
2023-05-14T00:27:38.078Z,83.05
2023-05-14T00:28:38.089Z,82.95
2023-05-14T00:29:38.094Z,83.25
2023-05-14T00:30:38.077Z,83.05
2023-05-14T00:31:38.130Z,83.46
2023-05-14T00:32:38.109Z,84.01
2023-05-14T00:33:38.041Z,83.70
2023-05-14T00:34:38.061Z,83.70
2023-05-14T00:35:38.037Z,84.22
2023-05-14T00:36:38.009Z,84.11
2023-05-14T00:37:37.992Z,84.22
2023-05-14T00:38:38.025Z,84.11
2023-05-14T00:39:37.994Z,84.42
2023-05-14T00:40:37.974Z,84.22
2023-05-14T00:41:37.945Z,84.31
2023-05-14T00:42:37.938Z,85.34
2023-05-14T00:43:37.953Z,85.34
2023-05-14T00:44:37.946Z,85.17
2023-05-14T00:45:37.902Z,85.38
2023-05-14T00:46:37.932Z,85.83
2023-05-14T00:47:37.973Z,86.04
2023-05-14T00:48:37.935Z,86.24
2023-05-14T00:49:37.879Z,86.75
2023-05-14T00:50:37.872Z,87.10
2023-05-14T00:51:37.851Z,87.10
2023-05-14T00:52:37.877Z,87.85
2023-05-14T00:53:37.950Z,87.92
2023-05-14T00:54:37.829Z,88.06
2023-05-14T00:55:37.816Z,88.27
2023-05-14T00:56:37.809Z,88.47
2023-05-14T00:57:37.820Z,88.78
2023-05-14T00:58:37.777Z,88.88
2023-05-14T00:59:37.774Z,88.78
2023-05-14T01:00:37.793Z,88.57
2023-05-14T01:01:37.752Z,88.57
2023-05-14T01:02:37.852Z,88.74
2023-05-14T01:03:37.868Z,88.47
2023-05-14T01:04:37.729Z,88.43
2023-05-14T01:05:37.729Z,88.53
2023-05-14T01:06:37.704Z,88.53
2023-05-14T01:07:37.734Z,88.33
2023-05-14T01:08:37.680Z,88.23
2023-05-14T01:09:37.677Z,87.71
2023-05-14T01:10:37.658Z,88.02
2023-05-14T01:11:37.681Z,87.92
2023-05-14T01:12:37.648Z,87.71
2023-05-14T01:13:37.635Z,87.71
2023-05-14T01:14:37.620Z,87.41
2023-05-14T01:15:37.616Z,87.51
2023-05-14T01:16:37.666Z,87.67
2023-05-14T01:17:37.654Z,87.61
2023-05-14T01:18:37.676Z,87.61
2023-05-14T01:19:37.562Z,86.99
2023-05-14T01:20:37.582Z,87.20
2023-05-14T01:21:37.594Z,87.61
2023-05-14T01:22:37.542Z,87.16
2023-05-14T01:23:37.537Z,87.41
2023-05-14T01:24:37.538Z,87.06
2023-05-14T01:25:37.545Z,87.47
2023-05-14T01:26:37.538Z,86.75
2023-05-14T01:27:37.507Z,86.85
2023-05-14T01:28:37.488Z,87.06
2023-05-14T01:29:37.477Z,87.16
2023-05-14T01:30:37.506Z,87.06
2023-05-14T01:31:37.494Z,87.06
2023-05-14T01:32:37.492Z,86.85
2023-05-14T01:33:37.447Z,86.85
2023-05-14T01:34:37.439Z,86.85
2023-05-14T01:35:37.466Z,86.55
2023-05-14T01:36:38.414Z,87.16
2023-05-14T01:37:37.422Z,86.34
2023-05-14T01:38:37.393Z,86.55
2023-05-14T01:39:37.403Z,86.24
2023-05-14T01:40:37.381Z,86.65
2023-05-14T01:41:37.362Z,86.65
2023-05-14T01:42:37.351Z,86.34
2023-05-14T01:43:37.406Z,86.14
2023-05-14T01:44:37.347Z,86.55
2023-05-14T01:45:37.315Z,87.06
2023-05-14T01:46:38.388Z,86.44
2023-05-14T01:47:37.321Z,86.14
2023-05-14T01:48:37.346Z,86.14
2023-05-14T01:49:37.305Z,86.14
2023-05-14T01:50:37.269Z,86.14
2023-05-14T01:51:37.261Z,86.48
2023-05-14T01:52:37.264Z,86.28
2023-05-14T01:53:37.278Z,86.48
2023-05-14T01:54:38.230Z,86.90
2023-05-14T01:55:37.220Z,86.96
2023-05-14T01:56:37.229Z,86.90
2023-05-14T01:57:37.199Z,87.10
2023-05-14T01:58:37.213Z,87.20
2023-05-14T01:59:37.183Z,87.92
2023-05-14T02:00:37.189Z,87.82
2023-05-14T02:01:37.198Z,87.82
2023-05-14T02:02:37.265Z,87.71
2023-05-14T02:03:37.170Z,87.88
2023-05-14T02:04:37.143Z,87.88
2023-05-14T02:05:37.125Z,87.67
2023-05-14T02:06:37.147Z,87.61
2023-05-14T02:07:37.144Z,87.71
2023-05-14T02:08:37.100Z,87.88
2023-05-14T02:09:37.102Z,87.67
2023-05-14T02:10:37.088Z,87.77
2023-05-14T02:11:37.090Z,87.67
2023-05-14T02:12:37.075Z,87.57
2023-05-14T02:13:37.053Z,87.47
2023-05-14T02:14:37.055Z,87.71
2023-05-14T02:15:37.055Z,87.71
2023-05-14T02:16:37.015Z,87.57
2023-05-14T02:17:38.079Z,87.61
2023-05-14T02:18:37.039Z,87.26
2023-05-14T02:19:37.009Z,87.20
2023-05-14T02:20:36.975Z,87.06
2023-05-14T02:21:36.966Z,86.58
2023-05-14T02:22:36.965Z,87.26
2023-05-14T02:23:41.567Z,86.58
2023-05-14T02:24:38.976Z,87.10
2023-05-14T02:25:36.946Z,86.99
2023-05-14T02:26:36.951Z,86.99
2023-05-14T02:27:36.954Z,86.90
2023-05-14T02:28:36.909Z,87.10
2023-05-14T02:29:36.910Z,86.90
2023-05-14T02:30:36.897Z,86.90
2023-05-14T02:31:36.929Z,86.90
2023-05-14T02:32:36.943Z,87.10
2023-05-14T02:33:37.106Z,87.65
2023-05-14T02:34:36.845Z,87.55
2023-05-14T02:35:36.858Z,87.76
2023-05-14T02:36:36.820Z,88.17
2023-05-14T02:37:36.819Z,87.76
2023-05-14T02:38:36.810Z,88.37
2023-05-14T02:39:36.801Z,88.57
2023-05-14T02:40:36.797Z,88.21
2023-05-14T02:41:36.765Z,88.88
2023-05-14T02:42:36.768Z,88.51
2023-05-14T02:43:36.752Z,88.92
2023-05-14T02:44:36.779Z,88.82
2023-05-14T02:45:36.761Z,88.62
2023-05-14T02:46:36.787Z,88.82
2023-05-14T02:47:38.161Z,88.88
2023-05-14T02:48:37.714Z,89.09
2023-05-14T02:49:36.715Z,89.09
2023-05-14T02:50:36.694Z,88.72
2023-05-14T02:51:36.690Z,89.19
2023-05-14T02:52:36.706Z,89.13
2023-05-14T02:53:36.651Z,89.13
2023-05-14T02:54:37.683Z,89.23
2023-05-14T02:55:36.653Z,89.23
2023-05-14T02:56:36.642Z,88.88
2023-05-14T02:57:36.647Z,88.78
2023-05-14T02:58:36.636Z,88.88
2023-05-14T02:59:36.625Z,89.19
2023-05-14T03:00:36.595Z,89.09
2023-05-14T03:01:36.591Z,89.09
2023-05-14T03:02:36.653Z,89.19
2023-05-14T03:03:36.609Z,89.19
2023-05-14T03:04:36.558Z,88.88
2023-05-14T03:05:36.545Z,88.98
2023-05-14T03:06:36.538Z,89.29
2023-05-14T03:07:36.591Z,89.29
2023-05-14T03:08:36.540Z,89.29
2023-05-14T03:09:38.312Z,89.09
2023-05-14T03:10:37.493Z,89.09
2023-05-14T03:11:36.486Z,89.19
2023-05-14T03:12:36.546Z,88.94
2023-05-14T03:13:36.472Z,88.84
2023-05-14T03:14:36.449Z,88.84
2023-05-14T03:15:36.462Z,88.84
2023-05-14T03:16:36.482Z,88.64
2023-05-14T03:17:36.469Z,88.59
2023-05-14T03:18:36.451Z,88.53
2023-05-14T03:19:36.409Z,88.12
2023-05-14T03:20:36.397Z,88.33
2023-05-14T03:21:36.396Z,88.23
2023-05-14T03:22:36.391Z,88.12
2023-05-14T03:23:36.375Z,88.23
2023-05-14T03:24:36.355Z,88.74
2023-05-14T03:25:36.449Z,88.12
2023-05-14T03:26:36.356Z,88.33
2023-05-14T03:27:36.350Z,88.12
2023-05-14T03:28:36.327Z,88.43
2023-05-14T03:29:36.309Z,88.08
2023-05-14T03:30:36.418Z,88.70
2023-05-14T03:31:36.303Z,88.59
2023-05-14T03:32:36.317Z,88.53
2023-05-14T03:33:36.256Z,88.59
2023-05-14T03:34:36.259Z,88.59
2023-05-14T03:35:36.237Z,88.53
2023-05-14T03:36:36.321Z,88.08
2023-05-14T03:37:36.231Z,87.98
2023-05-14T03:38:36.205Z,87.88
2023-05-14T03:39:36.217Z,88.18
2023-05-14T03:40:36.218Z,88.49
2023-05-14T03:41:36.283Z,88.29
2023-05-14T03:42:36.210Z,88.80
2023-05-14T03:43:36.172Z,88.49
2023-05-14T03:44:36.148Z,88.49
2023-05-14T03:45:36.166Z,88.29
2023-05-14T03:46:36.131Z,88.39
2023-05-14T03:48:08.270Z,87.88
2023-05-14T03:48:36.114Z,88.18
2023-05-14T03:49:36.105Z,88.04
2023-05-14T03:50:36.145Z,87.94
2023-05-14T03:51:36.087Z,87.57
2023-05-14T03:52:36.077Z,87.84
2023-05-14T03:53:36.065Z,87.84
2023-05-14T03:54:36.085Z,87.53
2023-05-14T03:55:36.059Z,87.43
2023-05-14T03:56:36.030Z,87.84
2023-05-14T03:57:36.029Z,87.98
2023-05-14T03:58:36.010Z,88.04
2023-05-14T03:59:36.034Z,87.84
2023-05-14T04:00:35.991Z,87.94
2023-05-14T04:01:35.976Z,87.84
2023-05-14T04:02:36.103Z,87.90
2023-05-14T04:03:36.318Z,87.79
2023-05-14T04:04:36.061Z,87.59
2023-05-14T04:05:35.942Z,87.49
2023-05-14T04:06:35.935Z,87.49
2023-05-14T04:07:35.928Z,87.59
2023-05-14T04:08:35.974Z,87.35
2023-05-14T04:09:35.921Z,87.59
2023-05-14T04:10:36.014Z,87.49
2023-05-14T04:11:35.884Z,87.18
2023-05-14T04:12:35.883Z,86.88
2023-05-14T04:13:35.866Z,86.32
2023-05-14T04:14:35.851Z,86.73
2023-05-14T04:15:35.908Z,86.83
2023-05-14T04:16:35.876Z,86.53
2023-05-14T04:17:35.869Z,86.94
2023-05-14T04:18:35.914Z,86.22
2023-05-14T04:19:35.835Z,86.05
2023-05-14T04:20:35.794Z,86.32
2023-05-14T04:21:35.789Z,86.32
2023-05-14T04:22:35.815Z,86.12
2023-05-14T04:23:35.776Z,85.50
2023-05-14T04:24:35.770Z,85.50
2023-05-14T04:25:35.753Z,86.02
2023-05-14T04:26:35.750Z,85.81
2023-05-14T04:27:35.750Z,85.57
2023-05-14T04:28:35.720Z,85.50
2023-05-14T04:29:35.714Z,85.88
2023-05-14T04:30:35.696Z,85.36
2023-05-14T04:31:35.704Z,85.36
2023-05-14T04:32:35.745Z,85.36
2023-05-14T04:33:35.667Z,85.26
2023-05-14T04:34:35.669Z,85.16
2023-05-14T04:35:35.675Z,85.20
2023-05-14T04:36:35.658Z,85.36
2023-05-14T04:37:35.667Z,85.26
2023-05-14T04:38:35.623Z,85.26
2023-05-14T04:39:35.616Z,85.36
2023-05-14T04:40:35.592Z,85.36
2023-05-14T04:41:35.620Z,84.95
2023-05-14T04:42:35.625Z,85.36
2023-05-14T04:43:35.582Z,85.36
2023-05-14T04:44:35.561Z,85.47
2023-05-14T04:45:35.621Z,84.85
2023-05-14T04:46:35.616Z,85.06
2023-05-14T04:47:35.564Z,85.36
2023-05-14T04:48:35.542Z,85.06
2023-05-14T04:49:35.521Z,85.26
2023-05-14T04:50:35.544Z,85.12
2023-05-14T04:51:35.515Z,84.95
2023-05-14T04:52:35.500Z,85.22
2023-05-14T04:53:35.486Z,85.22
2023-05-14T04:54:35.514Z,84.91
2023-05-14T04:55:35.477Z,85.22
2023-05-14T04:56:35.443Z,85.12
2023-05-14T04:57:35.443Z,85.12
2023-05-14T04:58:35.458Z,85.02
2023-05-14T04:59:35.415Z,85.12
2023-05-14T05:00:35.414Z,85.12
2023-05-14T05:01:35.419Z,85.32
2023-05-14T05:02:35.420Z,84.26
2023-05-14T05:03:35.461Z,84.16
2023-05-14T05:04:35.374Z,84.26
2023-05-14T05:05:35.370Z,84.16
2023-05-14T05:06:35.359Z,83.95
2023-05-14T05:07:35.340Z,83.54
2023-05-14T05:08:35.323Z,83.71
2023-05-14T05:09:35.357Z,83.95
2023-05-14T05:10:35.311Z,83.95
2023-05-14T05:11:35.307Z,84.06
2023-05-14T05:12:35.292Z,83.92
2023-05-14T05:13:35.288Z,83.71
2023-05-14T05:14:35.296Z,83.92
2023-05-14T05:15:35.420Z,83.61
2023-05-14T05:16:35.287Z,83.51
2023-05-14T05:17:35.274Z,84.01
2023-05-14T05:18:35.309Z,84.01
2023-05-14T05:19:43.187Z,83.92
2023-05-14T05:20:37.211Z,83.81
2023-05-14T05:21:35.201Z,84.01
2023-05-14T05:22:35.179Z,84.22
2023-05-14T05:23:35.210Z,83.92
2023-05-14T05:24:35.177Z,83.87
2023-05-14T05:25:35.158Z,83.92
2023-05-14T05:26:35.151Z,84.18
2023-05-14T05:27:35.136Z,83.98
2023-05-14T05:28:35.137Z,83.98
2023-05-14T05:29:35.127Z,83.67
2023-05-14T05:30:35.115Z,83.67
2023-05-14T05:31:35.142Z,83.87
2023-05-14T05:32:35.112Z,83.84
2023-05-14T05:33:35.112Z,83.87
2023-05-14T05:34:35.077Z,83.78
2023-05-14T05:35:35.057Z,84.18
2023-05-14T05:36:36.042Z,84.14
2023-05-14T05:37:35.085Z,84.25
2023-05-14T05:38:35.037Z,84.04
2023-05-14T05:39:35.328Z,84.45
2023-05-14T05:40:35.016Z,84.04
2023-05-14T05:41:35.009Z,84.04
2023-05-14T05:42:34.995Z,84.04
2023-05-14T05:43:34.976Z,83.84
2023-05-14T05:44:34.956Z,83.43
2023-05-14T05:45:34.947Z,83.63
2023-05-14T05:46:34.987Z,83.53
2023-05-14T05:47:35.016Z,83.63
2023-05-14T05:48:34.918Z,83.39
2023-05-14T05:49:34.925Z,83.29
2023-05-14T05:50:34.903Z,83.59
2023-05-14T05:51:34.928Z,83.39
2023-05-14T05:52:34.879Z,83.39
2023-05-14T05:53:34.870Z,83.09
2023-05-14T05:54:34.877Z,83.80
2023-05-14T05:55:34.852Z,83.59
2023-05-14T05:56:34.917Z,83.59
2023-05-14T05:57:34.847Z,83.49
2023-05-14T05:58:34.833Z,83.09
2023-05-14T05:59:34.837Z,83.25
2023-05-14T06:00:34.818Z,83.29
2023-05-14T06:01:34.812Z,83.45
2023-05-14T06:02:34.951Z,83.35
2023-05-14T06:03:34.788Z,83.04
2023-05-14T06:04:34.786Z,83.15
2023-05-14T06:05:34.861Z,83.15
2023-05-14T06:06:34.760Z,82.84
2023-05-14T06:07:34.768Z,82.80
2023-05-14T06:08:34.729Z,82.70
2023-05-14T06:09:34.742Z,82.84
2023-05-14T06:10:34.746Z,82.54
2023-05-14T06:11:34.694Z,82.60
2023-05-14T06:12:34.706Z,82.64
2023-05-14T06:13:34.678Z,82.13
2023-05-14T06:14:34.684Z,82.64
2023-05-14T06:15:34.684Z,82.84
2023-05-14T06:16:34.791Z,82.33
2023-05-14T06:17:34.648Z,82.54
2023-05-14T06:18:34.658Z,82.74
2023-05-14T06:19:34.642Z,82.60
2023-05-14T06:20:34.623Z,82.80
2023-05-14T06:21:34.612Z,82.60
2023-05-14T06:22:34.594Z,82.60
2023-05-14T06:23:34.576Z,82.60
2023-05-14T06:24:34.595Z,82.19
2023-05-14T06:25:34.556Z,82.29
2023-05-14T06:26:34.543Z,82.60
2023-05-14T06:27:34.538Z,82.40
2023-05-14T06:28:34.539Z,82.60
2023-05-14T06:29:34.542Z,82.19
2023-05-14T06:30:34.506Z,81.65
2023-05-14T06:31:34.526Z,81.95
2023-05-14T06:32:34.503Z,81.54
2023-05-14T06:33:34.500Z,82.26
2023-05-14T06:34:34.466Z,82.26
2023-05-14T06:35:34.463Z,81.51
2023-05-14T06:36:34.443Z,81.04
2023-05-14T06:37:34.436Z,81.13
2023-05-14T06:38:34.456Z,81.60
2023-05-14T06:39:34.417Z,80.90
2023-05-14T06:40:34.413Z,81.40
2023-05-14T06:41:34.415Z,80.76
2023-05-14T06:42:34.408Z,80.29
2023-05-14T06:43:34.428Z,80.79
2023-05-14T06:44:34.377Z,81.40
2023-05-14T06:45:34.379Z,80.99
2023-05-14T06:46:34.351Z,81.60
2023-05-14T06:47:34.384Z,81.30
2023-05-14T06:48:34.383Z,80.59
2023-05-14T06:49:34.320Z,80.52
2023-05-14T06:50:34.314Z,80.22
2023-05-14T06:51:34.306Z,80.52
2023-05-14T06:52:34.304Z,80.11
2023-05-14T06:53:34.279Z,79.91
2023-05-14T06:54:34.275Z,80.08
2023-05-14T06:55:34.257Z,80.93
2023-05-14T06:56:34.271Z,81.20
2023-05-14T06:57:34.284Z,80.83
2023-05-14T06:58:34.234Z,80.59
2023-05-14T06:59:34.220Z,79.77
2023-05-14T07:00:34.223Z,79.68
2023-05-14T07:01:34.269Z,79.16
2023-05-14T07:02:34.276Z,78.35
2023-05-14T07:03:34.173Z,78.05
2023-05-14T07:04:34.183Z,78.45
2023-05-14T07:05:34.196Z,78.55
2023-05-14T07:06:34.179Z,78.96
2023-05-14T07:07:34.138Z,78.96
2023-05-14T07:08:34.131Z,79.27
2023-05-14T07:09:34.127Z,79.06
2023-05-14T07:10:34.146Z,79.33
2023-05-14T07:11:34.111Z,79.33
2023-05-14T07:12:34.096Z,78.89
2023-05-14T07:13:34.080Z,77.87
2023-05-14T07:14:34.071Z,77.16
2023-05-14T07:15:34.073Z,76.75
2023-05-14T07:16:34.126Z,76.45
2023-05-14T07:17:34.093Z,76.34
2023-05-14T07:18:35.040Z,76.45
2023-05-14T07:19:34.029Z,76.95
2023-05-14T07:20:34.041Z,77.16
2023-05-14T07:21:34.007Z,76.25
2023-05-14T07:22:33.987Z,77.47
2023-05-14T07:23:34.989Z,79.19
2023-05-14T07:24:33.995Z,79.36
2023-05-14T07:25:33.980Z,78.81
2023-05-14T07:26:33.965Z,78.57
2023-05-14T07:27:33.951Z,78.37
2023-05-14T07:28:33.944Z,76.61
2023-05-14T07:29:33.940Z,75.70
2023-05-14T07:30:33.917Z,75.59
2023-05-14T07:31:33.981Z,76.20
2023-05-14T07:32:33.917Z,75.29
2023-05-14T07:33:33.887Z,73.97
2023-05-14T07:34:33.921Z,75.09
2023-05-14T07:35:33.875Z,74.07
2023-05-14T07:36:33.852Z,74.68
2023-05-14T07:37:33.856Z,73.97
2023-05-14T07:38:33.858Z,74.88
2023-05-14T07:39:33.838Z,73.60
2023-05-14T07:40:33.840Z,72.89
2023-05-14T07:41:33.835Z,73.06
2023-05-14T07:42:37.091Z,73.26
2023-05-14T07:43:34.839Z,74.85
2023-05-14T07:44:33.793Z,73.97
2023-05-14T07:45:33.769Z,74.17
2023-05-14T07:46:33.788Z,75.15
2023-05-14T07:47:33.826Z,75.25
2023-05-14T07:48:33.796Z,73.90
2023-05-14T07:49:33.730Z,72.89
2023-05-14T07:50:33.718Z,73.09
2023-05-14T07:51:33.715Z,72.48
2023-05-14T07:52:33.718Z,71.53
2023-05-14T07:53:33.692Z,71.60
2023-05-14T07:54:33.748Z,71.40
2023-05-14T07:55:33.678Z,71.26
2023-05-14T07:56:33.711Z,71.91
2023-05-14T07:57:33.679Z,70.79
2023-05-14T07:58:33.635Z,71.09
2023-05-14T07:59:33.654Z,71.53
2023-05-14T08:00:33.625Z,71.53
2023-05-14T08:01:33.612Z,71.33
2023-05-14T08:02:33.661Z,72.04
2023-05-14T08:03:33.671Z,72.04
2023-05-14T08:04:33.730Z,71.47
2023-05-14T08:05:33.584Z,73.16
2023-05-14T08:06:33.611Z,72.31
2023-05-14T08:07:33.547Z,72.81
2023-05-14T08:08:33.549Z,72.45
2023-05-14T08:09:33.536Z,73.02
2023-05-14T08:10:33.556Z,73.39
2023-05-14T08:11:33.544Z,73.29
2023-05-14T08:12:33.503Z,72.17
2023-05-14T08:13:33.496Z,71.88
2023-05-14T08:14:33.496Z,71.33
2023-05-14T08:15:33.472Z,70.79
2023-05-14T08:16:33.494Z,69.41
2023-05-14T08:17:33.481Z,69.48
2023-05-14T08:18:33.462Z,68.30
2023-05-14T08:19:33.445Z,69.31
2023-05-14T08:20:33.482Z,70.22
2023-05-14T08:21:33.422Z,70.59
2023-05-14T08:22:33.403Z,70.18
2023-05-14T08:23:33.522Z,71.30
2023-05-14T08:24:33.391Z,71.13
2023-05-14T08:25:33.396Z,70.02
2023-05-14T08:26:33.384Z,71.16
2023-05-14T08:28:05.257Z,72.48
2023-05-14T08:28:33.388Z,71.06
2023-05-14T08:29:33.340Z,70.15
2023-05-14T08:30:33.410Z,68.53
2023-05-14T08:31:33.364Z,68.50
2023-05-14T08:32:33.350Z,71.03
2023-05-14T08:33:33.396Z,69.31
2023-05-14T08:34:33.327Z,69.92
2023-05-14T08:35:33.323Z,68.50
2023-05-14T08:36:33.281Z,68.57
2023-05-14T08:37:33.250Z,68.97
2023-05-14T08:38:33.258Z,71.17
2023-05-14T08:39:33.259Z,68.10
2023-05-14T08:40:33.233Z,66.58
2023-05-14T08:41:33.218Z,67.80
2023-05-14T08:42:33.232Z,67.56
2023-05-14T08:43:33.212Z,66.89
2023-05-14T08:44:33.234Z,66.38
2023-05-14T08:45:33.181Z,66.69
2023-05-14T08:46:33.176Z,67.69
2023-05-14T08:47:33.206Z,66.55
2023-05-14T08:48:33.305Z,66.22
2023-05-14T08:49:33.189Z,65.58
2023-05-14T08:50:33.140Z,64.61
2023-05-14T08:51:33.117Z,66.53
2023-05-14T08:52:33.114Z,64.61
2023-05-14T08:53:33.122Z,66.05
2023-05-14T08:54:33.093Z,66.69
2023-05-14T08:55:33.087Z,65.05
2023-05-14T08:56:33.078Z,64.95
2023-05-14T08:57:33.059Z,66.53
2023-05-14T08:58:33.936Z,64.89
2023-05-14T08:59:33.042Z,63.37
2023-05-14T09:00:33.031Z,63.17
2023-05-14T09:01:33.050Z,61.96
2023-05-14T09:02:33.040Z,61.96
2023-05-14T09:03:33.085Z,63.17
2023-05-14T09:04:32.997Z,63.45
2023-05-14T09:05:32.969Z,62.34
2023-05-14T09:06:32.959Z,60.72
2023-05-14T09:07:32.967Z,60.72
2023-05-14T09:08:32.989Z,60.52
2023-05-14T09:09:32.974Z,59.79
2023-05-14T09:10:32.926Z,60.69
2023-05-14T09:11:32.933Z,61.27
2023-05-14T09:12:32.923Z,60.19
2023-05-14T09:13:32.900Z,60.69
2023-05-14T09:14:32.896Z,60.72
2023-05-14T09:15:32.905Z,61.60
2023-05-14T09:16:32.948Z,61.30
2023-05-14T09:17:32.890Z,59.48
2023-05-14T09:18:32.871Z,60.27
2023-05-14T09:19:32.867Z,59.66
2023-05-14T09:20:32.855Z,59.23
2023-05-14T09:21:33.502Z,58.55
2023-05-14T09:22:33.846Z,58.62
2023-05-14T09:23:32.803Z,60.77
2023-05-14T09:24:32.794Z,58.86
2023-05-14T09:25:32.783Z,58.48
2023-05-14T09:26:32.797Z,58.28
2023-05-14T09:27:32.764Z,61.10
2023-05-14T09:28:32.754Z,60.16
2023-05-14T09:29:32.756Z,58.42
2023-05-14T09:30:32.760Z,59.70
2023-05-14T09:31:32.778Z,59.94
2023-05-14T09:32:32.750Z,59.53
2023-05-14T09:33:32.692Z,57.72
2023-05-14T09:34:32.697Z,57.82
2023-05-14T09:35:32.721Z,60.47
2023-05-14T09:36:32.669Z,61.07
2023-05-14T09:37:32.688Z,59.03
2023-05-14T09:38:32.657Z,58.60
2023-05-14T09:39:32.691Z,59.08
2023-05-14T09:40:32.661Z,60.05
2023-05-14T09:41:32.625Z,58.29
2023-05-14T09:42:32.620Z,61.17
2023-05-14T09:43:32.608Z,60.84
2023-05-14T09:44:32.627Z,62.62
2023-05-14T09:45:32.597Z,62.72
2023-05-14T09:46:32.578Z,60.05
2023-05-14T09:47:32.723Z,59.05
2023-05-14T09:48:32.588Z,57.74
2023-05-14T09:49:32.560Z,58.97
2023-05-14T09:50:32.535Z,58.93
2023-05-14T09:51:32.523Z,57.45
2023-05-14T09:52:32.540Z,58.18
2023-05-14T09:53:32.515Z,60.83
2023-05-14T09:54:32.517Z,61.30
2023-05-14T09:55:32.502Z,59.11
2023-05-14T09:56:32.495Z,61.08
2023-05-14T09:57:32.517Z,62.16
2023-05-14T09:59:06.887Z,60.65
2023-05-14T09:59:32.458Z,61.23
2023-05-14T10:00:32.453Z,63.85
2023-05-14T10:01:32.473Z,63.04
2023-05-14T10:02:32.462Z,60.89
2023-05-14T10:03:32.448Z,61.07
2023-05-14T10:04:32.571Z,58.45
2023-05-14T10:05:32.397Z,58.12
2023-05-14T10:06:32.392Z,58.22
2023-05-14T10:07:32.384Z,59.00
2023-05-14T10:08:32.422Z,58.67
2023-05-14T10:09:32.361Z,57.46
2023-05-14T10:10:32.355Z,56.74
2023-05-14T10:11:32.341Z,56.13
2023-05-14T10:12:32.331Z,58.04
2023-05-14T10:13:32.345Z,56.74
2023-05-14T10:14:32.313Z,56.71
2023-05-14T10:15:32.308Z,55.71
2023-05-14T10:16:32.301Z,56.71
2023-05-14T10:17:32.332Z,55.63
2023-05-14T10:18:32.339Z,55.76
2023-05-14T10:19:32.255Z,57.50
2023-05-14T10:20:32.256Z,56.82
2023-05-14T10:21:32.253Z,58.73
2023-05-14T10:22:32.254Z,56.95
2023-05-14T10:23:32.258Z,57.45
2023-05-14T10:24:32.270Z,59.48
2023-05-14T10:25:32.210Z,58.05
2023-05-14T10:26:32.264Z,54.83
2023-05-14T10:27:32.216Z,53.37
2023-05-14T10:28:32.175Z,54.88
2023-05-14T10:29:32.170Z,55.26
2023-05-14T10:30:32.167Z,54.72
2023-05-14T10:31:32.215Z,55.80
2023-05-14T10:32:32.173Z,56.58
2023-05-14T10:33:32.124Z,54.68
2023-05-14T10:34:32.145Z,53.07
2023-05-14T10:35:32.105Z,51.26
2023-05-14T10:36:32.125Z,52.75
2023-05-14T10:37:32.145Z,51.04
2023-05-14T10:38:32.083Z,51.56
2023-05-14T10:39:32.070Z,52.64
2023-05-14T10:40:32.087Z,53.14
2023-05-14T10:41:32.056Z,52.49
2023-05-14T10:42:32.032Z,52.72
2023-05-14T10:43:32.029Z,52.82
2023-05-14T10:44:32.044Z,53.30
2023-05-14T10:45:32.036Z,55.30
2023-05-14T10:46:32.012Z,52.67
2023-05-14T10:47:32.017Z,51.74
2023-05-14T10:48:31.983Z,52.55
2023-05-14T10:49:43.017Z,52.62
2023-05-14T10:50:34.052Z,54.12
2023-05-14T10:51:31.982Z,51.69
2023-05-14T10:52:31.936Z,51.59
2023-05-14T10:53:31.930Z,51.07
2023-05-14T10:54:31.975Z,51.97
2023-05-14T10:55:31.954Z,50.94
2023-05-14T10:56:31.898Z,49.14
2023-05-14T10:57:31.909Z,49.02
2023-05-14T10:58:31.887Z,49.79
2023-05-14T10:59:31.884Z,51.52
2023-05-14T11:00:31.844Z,50.12
2023-05-14T11:01:32.900Z,49.11
2023-05-14T11:02:31.859Z,49.49
2023-05-14T11:03:31.878Z,48.39
2023-05-14T11:04:31.864Z,46.77
2023-05-14T11:05:31.803Z,46.07
2023-05-14T11:06:31.801Z,45.29
2023-05-14T11:07:31.812Z,46.69
2023-05-14T11:08:31.804Z,46.89
2023-05-14T11:09:31.797Z,46.94
2023-05-14T11:10:31.773Z,52.55
2023-05-14T11:11:31.758Z,50.09
2023-05-14T11:12:31.745Z,51.07
2023-05-14T11:13:31.740Z,50.16
2023-05-14T11:14:32.737Z,50.07
2023-05-14T11:15:31.711Z,50.19
2023-05-14T11:16:31.732Z,48.46
2023-05-14T11:17:31.733Z,49.96
2023-05-14T11:18:31.723Z,50.67
2023-05-14T11:19:31.678Z,48.96
2023-05-14T11:20:31.680Z,48.57
2023-05-14T11:21:31.820Z,48.34
2023-05-14T11:22:31.675Z,48.19
2023-05-14T11:23:31.651Z,50.44
2023-05-14T11:24:31.623Z,50.24
2023-05-14T11:25:31.971Z,51.14
2023-05-14T11:26:31.690Z,51.42
2023-05-14T11:27:31.620Z,52.22
2023-05-14T11:28:31.585Z,51.12
2023-05-14T11:29:31.598Z,50.69
2023-05-14T11:30:31.576Z,50.99
2023-05-14T11:31:31.682Z,51.21
2023-05-14T11:32:31.561Z,49.84
2023-05-14T11:33:31.544Z,50.94
2023-05-14T11:34:31.539Z,54.75
2023-05-14T11:35:31.505Z,54.97
2023-05-14T11:36:31.506Z,51.97
2023-05-14T11:37:31.497Z,53.07
2023-05-14T11:38:31.500Z,50.76
2023-05-14T11:39:31.474Z,50.36
2023-05-14T11:40:31.460Z,51.76
2023-05-14T11:41:31.464Z,51.54
2023-05-14T11:42:31.441Z,51.42
2023-05-14T11:43:31.435Z,52.82
2023-05-14T11:44:31.427Z,56.80
2023-05-14T11:45:31.410Z,50.37
2023-05-14T11:46:31.503Z,51.04
2023-05-14T11:47:31.415Z,48.10
2023-05-14T11:48:31.384Z,46.09
2023-05-14T11:49:31.388Z,48.11
2023-05-14T11:50:31.386Z,46.14
2023-05-14T11:51:31.354Z,46.46
2023-05-14T11:52:31.366Z,46.34
2023-05-14T11:53:31.369Z,46.14
2023-05-14T11:54:31.349Z,46.84
2023-05-14T11:55:31.313Z,46.98
2023-05-14T11:56:31.310Z,48.51
2023-05-14T11:57:31.308Z,49.13
2023-05-14T11:58:31.280Z,49.93
2023-05-14T11:59:31.274Z,50.92
2023-05-14T12:00:31.285Z,50.39
2023-05-14T12:01:31.266Z,49.14
2023-05-14T12:02:31.306Z,47.60
2023-05-14T12:03:31.356Z,46.99
2023-05-14T12:04:31.286Z,46.17
2023-05-14T12:05:31.234Z,46.55
2023-05-14T12:06:31.205Z,45.65
2023-05-14T12:07:31.229Z,44.33
2023-05-14T12:08:31.182Z,45.83
2023-05-14T12:09:31.172Z,44.11
2023-05-14T12:10:31.162Z,44.11
2023-05-14T12:11:31.155Z,49.40
2023-05-14T12:12:31.167Z,44.63
2023-05-14T12:13:31.169Z,42.15
2023-05-14T12:14:31.143Z,43.27
2023-05-14T12:15:31.122Z,44.07
2023-05-14T12:16:31.244Z,43.09
2023-05-14T12:17:31.119Z,43.54
2023-05-14T12:18:31.308Z,46.26
2023-05-14T12:19:31.153Z,47.44
2023-05-14T12:20:31.062Z,46.54
2023-05-14T12:21:31.049Z,46.84
2023-05-14T12:22:31.053Z,46.81
2023-05-14T12:23:31.063Z,47.52
2023-05-14T12:24:31.026Z,48.29
2023-05-14T12:25:31.014Z,48.19
2023-05-14T12:26:31.025Z,46.80
2023-05-14T12:27:31.068Z,46.62
2023-05-14T12:28:31.022Z,48.36
2023-05-14T12:29:30.973Z,48.57
2023-05-14T12:30:30.966Z,47.36
2023-05-14T12:31:31.001Z,49.29
2023-05-14T12:32:31.012Z,50.42
2023-05-14T12:33:30.972Z,51.14
2023-05-14T12:34:30.937Z,48.53
2023-05-14T12:35:30.910Z,50.56
2023-05-14T12:36:30.926Z,52.49
2023-05-14T12:37:31.322Z,51.21
2023-05-14T12:38:31.893Z,52.82
2023-05-14T12:39:30.880Z,51.19
2023-05-14T12:40:30.873Z,49.38
2023-05-14T12:41:30.867Z,49.88
2023-05-14T12:42:30.873Z,50.18
2023-05-14T12:43:30.838Z,49.68
2023-05-14T12:44:30.826Z,53.00
2023-05-14T12:45:30.860Z,50.59
2023-05-14T12:46:30.916Z,51.29
2023-05-14T12:47:30.853Z,56.21
2023-05-14T12:48:30.790Z,55.33
2023-05-14T12:49:30.813Z,53.09
2023-05-14T12:50:30.778Z,55.43
2023-05-14T12:51:30.770Z,53.32
2023-05-14T12:53:31.760Z,57.81